Time;durP1;ratioP1;P1;durP2;ratioP2;P2;SDS_P1;SDS_P2;PMS_P1;PMS_P2;Temp;Humidity;BMP_temperature;BMP_pressure;BME280_temperature;BME280_humidity;BME280_pressure;Samples;Min_cycle;Max_cycle;Signal;HPM_P1;HPM_P2
2023/12/23 00:01:16;;;;;;;4.43;1.92;;;0.40;91.50;;;;;;5033655;28;20025;-80
2023/12/23 00:03:41;;;;;;;6.53;2.33;;;0.40;92.60;;;;;;5032441;28;20052;-80
2023/12/23 00:06:07;;;;;;;6.03;2.42;;;0.40;92.60;;;;;;5033495;28;20096;-80
2023/12/23 00:08:33;;;;;;;4.70;1.80;;;0.40;93.10;;;;;;5032568;28;20104;-78
2023/12/23 00:10:58;;;;;;;5.13;2.33;;;0.30;93.20;;;;;;5033160;28;20053;-80
2023/12/23 00:13:24;;;;;;;6.15;2.83;;;0.30;93.30;;;;;;5032377;28;20515;-81
2023/12/23 00:15:50;;;;;;;4.65;2.10;;;0.30;93.40;;;;;;5033249;28;20033;-78
2023/12/23 00:18:15;;;;;;;5.13;2.20;;;0.30;93.80;;;;;;5032240;28;20472;-81
2023/12/23 00:20:41;;;;;;;4.43;2.20;;;0.30;93.20;;;;;;5032145;28;20018;-78
2023/12/23 00:23:06;;;;;;;4.75;2.33;;;0.30;93.40;;;;;;5031803;28;20013;-80
2023/12/23 00:25:32;;;;;;;2.72;1.90;;;0.30;92.70;;;;;;5032083;28;20021;-80
2023/12/23 00:27:58;;;;;;;6.88;2.13;;;0.30;93.40;;;;;;5033243;28;20369;-79
2023/12/23 00:30:23;;;;;;;4.65;1.83;;;0.30;92.90;;;;;;5031473;28;20030;-78
2023/12/23 00:32:50;;;;;;;7.53;2.28;;;0.30;92.60;;;;;;5033518;28;20080;-80
2023/12/23 00:35:17;;;;;;;5.45;2.45;;;0.30;91.50;;;;;;5032113;28;20116;-79
2023/12/23 00:37:43;;;;;;;3.65;1.80;;;0.30;90.50;;;;;;5031926;28;20034;-78
2023/12/23 00:40:09;;;;;;;4.18;2.10;;;0.30;91.70;;;;;;5033202;28;20017;-79
2023/12/23 00:42:36;;;;;;;7.78;1.83;;;0.30;91.40;;;;;;5031912;28;20018;-80
2023/12/23 00:45:02;;;;;;;4.28;2.47;;;0.30;91.40;;;;;;5031769;28;20467;-78
2023/12/23 00:47:27;;;;;;;4.20;2.45;;;0.30;91.00;;;;;;5033063;28;20035;-80
2023/12/23 00:49:53;;;;;;;3.10;1.75;;;0.20;90.20;;;;;;5032961;28;20017;-78
2023/12/23 00:52:19;;;;;;;4.90;1.83;;;0.30;90.40;;;;;;5031704;28;20101;-78
2023/12/23 00:54:44;;;;;;;2.03;1.77;;;0.30;90.90;;;;;;5032659;28;20075;-78
2023/12/23 00:57:10;;;;;;;2.88;1.50;;;0.30;91.10;;;;;;5032863;28;20465;-78
2023/12/23 00:59:35;;;;;;;6.88;2.00;;;0.20;90.80;;;;;;5031352;28;20113;-80
2023/12/23 01:02:01;;;;;;;5.05;1.70;;;0.20;90.30;;;;;;5031020;28;20040;-80
2023/12/23 01:04:26;;;;;;;8.13;1.58;;;0.30;89.80;;;;;;5031687;28;20021;-80
2023/12/23 01:06:52;;;;;;;3.55;1.50;;;0.30;88.90;;;;;;5030607;28;20021;-79
2023/12/23 01:09:18;;;;;;;4.85;2.20;;;0.20;88.40;;;;;;5032645;28;20383;-79
2023/12/23 01:11:43;;;;;;;2.50;1.80;;;0.20;87.80;;;;;;5032698;28;20108;-81
2023/12/23 01:14:09;;;;;;;3.60;1.60;;;0.20;87.50;;;;;;5031166;28;20121;-81
2023/12/23 01:16:35;;;;;;;5.60;1.90;;;0.20;87.00;;;;;;5031465;28;20036;-79
2023/12/23 01:19:00;;;;;;;6.85;2.17;;;0.20;88.00;;;;;;5032331;28;20025;-80
2023/12/23 01:21:26;;;;;;;3.40;1.90;;;0.20;87.70;;;;;;5032654;28;20026;-78
2023/12/23 01:23:51;;;;;;;7.65;2.53;;;0.20;88.50;;;;;;5032259;28;20030;-78
2023/12/23 01:26:17;;;;;;;4.35;2.25;;;0.20;88.90;;;;;;5032521;28;20021;-77
2023/12/23 01:28:42;;;;;;;4.07;1.65;;;0.10;90.00;;;;;;5032053;28;20022;-80
2023/12/23 01:31:08;;;;;;;3.17;2.58;;;0.10;90.70;;;;;;5031245;28;20487;-78
2023/12/23 01:33:34;;;;;;;5.18;2.15;;;0.10;90.40;;;;;;5032185;28;20048;-78
2023/12/23 01:36:00;;;;;;;5.75;1.73;;;0.10;89.50;;;;;;5031261;28;20394;-80
2023/12/23 01:38:25;;;;;;;1.92;1.65;;;0.10;89.60;;;;;;5031051;28;20021;-78
2023/12/23 01:40:51;;;;;;;4.05;1.70;;;0.10;89.50;;;;;;5032318;28;20521;-78
2023/12/23 01:43:17;;;;;;;3.88;2.13;;;0.10;90.30;;;;;;5030697;28;20024;-80
2023/12/23 01:45:42;;;;;;;3.63;1.90;;;0.10;90.50;;;;;;5031093;28;20029;-78
2023/12/23 01:48:10;;;;;;;4.53;1.95;;;0.00;91.60;;;;;;5030746;28;20017;-79
2023/12/23 01:50:37;;;;;;;3.35;1.60;;;0.00;91.80;;;;;;5031227;28;20030;-79
2023/12/23 01:53:04;;;;;;;3.20;2.22;;;0.00;91.10;;;;;;5030198;28;20049;-78
2023/12/23 01:55:31;;;;;;;2.88;1.70;;;-0.10;91.90;;;;;;5032254;28;20057;-79
2023/12/23 01:57:57;;;;;;;3.17;1.85;;;-0.10;91.50;;;;;;5032212;28;20044;-78
2023/12/23 02:00:22;;;;;;;2.65;1.75;;;-0.10;91.20;;;;;;5023381;28;20110;-78
2023/12/23 02:02:49;;;;;;;3.08;1.92;;;-0.10;91.40;;;;;;5031463;28;20460;-80
2023/12/23 02:05:15;;;;;;;4.50;2.00;;;-0.20;92.00;;;;;;5030925;28;20037;-78
2023/12/23 02:07:45;;;;;;;3.90;1.73;;;-0.20;92.70;;;;;;5030501;28;20483;-78
2023/12/23 02:10:11;;;;;;;3.03;1.80;;;-0.20;93.10;;;;;;5032163;28;20132;-81
2023/12/23 02:12:47;;;;;;;4.35;1.85;;;-0.20;93.60;;;;;;5032161;28;20033;-78
2023/12/23 02:15:15;;;;;;;3.92;2.05;;;-0.10;94.10;;;;;;5030842;28;20025;-80
2023/12/23 02:17:41;;;;;;;4.75;2.05;;;-0.10;94.80;;;;;;5031564;28;20120;-78
2023/12/23 02:20:07;;;;;;;3.78;2.60;;;-0.20;95.70;;;;;;5035989;28;20041;-80
2023/12/23 02:22:33;;;;;;;8.52;2.67;;;-0.20;96.40;;;;;;5035391;28;20036;-78
2023/12/23 02:24:59;;;;;;;4.57;2.55;;;-0.10;96.80;;;;;;5034425;28;20108;-81
2023/12/23 02:27:30;;;;;;;5.35;1.90;;;-0.10;98.20;;;;;;5034162;28;20475;-80
2023/12/23 02:29:58;;;;;;;6.15;2.15;;;-0.10;98.90;;;;;;5035510;28;20104;-78
2023/12/23 02:32:25;;;;;;;3.10;1.90;;;-0.10;99.50;;;;;;5035347;28;20049;-80
2023/12/23 02:34:53;;;;;;;4.68;1.80;;;0.00;99.90;;;;;;5033986;28;20052;-77
2023/12/23 02:37:19;;;;;;;3.60;2.10;;;0.00;99.90;;;;;;5035155;28;20112;-80
2023/12/23 02:39:44;;;;;;;6.05;2.60;;;0.00;99.90;;;;;;5035212;28;20092;-77
2023/12/23 02:42:10;;;;;;;6.03;2.13;;;0.00;99.90;;;;;;5035464;28;20135;-78
2023/12/23 02:44:36;;;;;;;3.22;1.75;;;0.00;99.90;;;;;;5035158;28;20022;-80
2023/12/23 02:47:01;;;;;;;2.75;2.00;;;0.10;99.90;;;;;;5033895;28;20086;-80
2023/12/23 02:49:27;;;;;;;3.40;1.70;;;0.10;99.90;;;;;;5033842;28;20396;-78
2023/12/23 02:51:52;;;;;;;4.28;1.80;;;0.10;99.90;;;;;;5035126;28;20020;-80
2023/12/23 02:54:18;;;;;;;3.83;1.38;;;0.10;99.90;;;;;;5033410;28;20018;-80
2023/12/23 02:56:44;;;;;;;5.03;1.55;;;0.10;99.90;;;;;;5035020;28;20048;-81
2023/12/23 02:59:09;;;;;;;4.72;1.80;;;0.10;99.90;;;;;;5034627;28;20151;-80
2023/12/23 03:01:35;;;;;;;4.38;2.03;;;0.20;97.30;;;;;;5033505;28;20025;-79
2023/12/23 03:04:00;;;;;;;5.55;1.98;;;0.20;98.10;;;;;;5033517;28;20021;-81
2023/12/23 03:06:26;;;;;;;3.28;2.13;;;0.20;90.20;;;;;;5033593;28;20505;-80
2023/12/23 03:08:52;;;;;;;3.60;1.73;;;0.20;92.50;;;;;;5033202;28;20097;-78
2023/12/23 03:11:17;;;;;;;4.38;1.50;;;0.10;94.10;;;;;;5033528;28;20031;-78
2023/12/23 03:13:43;;;;;;;7.28;2.45;;;0.10;95.10;;;;;;5033302;28;20113;-79
2023/12/23 03:16:16;;;;;;;3.50;1.55;;;0.10;95.90;;;;;;5033716;28;20036;-79
2023/12/23 03:18:42;;;;;;;5.15;2.00;;;0.10;95.30;;;;;;5034566;28;20044;-80
2023/12/23 03:21:08;;;;;;;4.25;1.95;;;-0.10;95.40;;;;;;5033631;28;20021;-78
2023/12/23 03:23:33;;;;;;;2.08;1.45;;;0.00;94.80;;;;;;5034262;28;20091;-78
2023/12/23 03:26:00;;;;;;;5.65;1.70;;;-0.10;92.90;;;;;;5034719;28;20064;-79
2023/12/23 03:28:25;;;;;;;4.38;1.95;;;-0.10;88.80;;;;;;5034530;28;20822;-78
2023/12/23 03:30:51;;;;;;;4.25;1.90;;;0.00;86.20;;;;;;5032592;28;20108;-78
2023/12/23 03:33:17;;;;;;;1.95;1.67;;;0.00;85.60;;;;;;5033077;28;20133;-78
2023/12/23 03:35:42;;;;;;;7.00;1.70;;;0.00;85.90;;;;;;5034401;28;20031;-80
2023/12/23 03:38:08;;;;;;;3.63;2.30;;;0.00;86.80;;;;;;5032901;28;20502;-77
2023/12/23 03:40:34;;;;;;;3.53;2.03;;;0.00;86.90;;;;;;5034229;28;20022;-77
2023/12/23 03:43:00;;;;;;;4.45;1.85;;;0.00;89.10;;;;;;5034070;28;20471;-79
2023/12/23 03:45:25;;;;;;;4.60;1.80;;;0.00;92.00;;;;;;5032863;28;20021;-77
2023/12/23 03:47:51;;;;;;;4.97;1.90;;;0.00;95.60;;;;;;5032665;28;20029;-79
2023/12/23 03:50:17;;;;;;;3.17;2.75;;;0.00;99.90;;;;;;5034189;28;20021;-77
2023/12/23 03:52:43;;;;;;;2.85;1.58;;;0.00;99.90;;;;;;5032330;28;20391;-79
2023/12/23 03:55:11;;;;;;;1.60;1.50;;;-0.10;99.90;;;;;;5032749;28;20121;-78
2023/12/23 03:57:37;;;;;;;4.53;1.40;;;-0.20;99.90;;;;;;5032511;28;20037;-78
2023/12/23 04:00:04;;;;;;;2.70;2.10;;;-0.30;99.90;;;;;;5033865;28;20386;-79
2023/12/23 04:02:30;;;;;;;3.15;1.73;;;-0.40;99.90;;;;;;5019986;28;20080;-78
2023/12/23 04:04:56;;;;;;;3.13;2.10;;;-0.40;99.90;;;;;;5032326;28;20022;-78
2023/12/23 04:07:21;;;;;;;3.88;1.75;;;-0.50;99.90;;;;;;5033754;28;20530;-79
2023/12/23 04:09:47;;;;;;;2.38;1.58;;;-0.50;99.90;;;;;;5032136;28;20026;-79
2023/12/23 04:12:13;;;;;;;7.13;1.85;;;-0.50;99.90;;;;;;5033578;28;20021;-79
2023/12/23 04:14:40;;;;;;;6.05;1.80;;;-0.50;99.90;;;;;;5032372;28;20021;-80
2023/12/23 04:17:06;;;;;;;3.33;2.15;;;-0.50;99.90;;;;;;5032993;28;20029;-76
2023/12/23 04:19:32;;;;;;;2.80;1.83;;;-0.50;99.90;;;;;;5032229;28;20022;-80
2023/12/23 04:21:58;;;;;;;2.55;1.75;;;-0.50;99.90;;;;;;5031864;28;20024;-76
2023/12/23 04:24:26;;;;;;;8.55;2.22;;;-0.50;99.90;;;;;;5033493;28;20025;-79
2023/12/23 04:26:55;;;;;;;2.25;1.80;;;-0.40;99.90;;;;;;5033483;28;20021;-78
2023/12/23 04:29:20;;;;;;;2.42;1.70;;;-0.40;99.90;;;;;;5032166;28;20022;-79
2023/12/23 04:31:46;;;;;;;3.95;1.80;;;-0.30;99.90;;;;;;5031768;28;20072;-77
2023/12/23 04:34:12;;;;;;;7.40;1.80;;;-0.30;99.90;;;;;;5032092;28;20035;-80
2023/12/23 04:36:38;;;;;;;4.82;1.88;;;-0.30;99.90;;;;;;5032804;28;20041;-78
2023/12/23 04:39:05;;;;;;;3.00;1.70;;;-0.30;99.90;;;;;;5033207;28;20044;-78
2023/12/23 04:41:32;;;;;;;4.03;1.80;;;-0.30;99.90;;;;;;5031656;28;20017;-77
2023/12/23 04:43:57;;;;;;;2.35;1.50;;;-0.30;99.90;;;;;;5032948;28;20026;-76
2023/12/23 04:46:23;;;;;;;2.78;1.90;;;-0.30;99.90;;;;;;5031834;28;20028;-77
2023/12/23 04:48:49;;;;;;;1.75;1.65;;;-0.30;99.90;;;;;;5032908;28;20025;-79
2023/12/23 04:51:15;;;;;;;4.63;1.63;;;-0.30;99.90;;;;;;5033170;28;20024;-79
2023/12/23 04:53:40;;;;;;;4.70;2.03;;;-0.30;99.90;;;;;;5031523;28;20026;-79
2023/12/23 04:56:07;;;;;;;1.20;1.10;;;-0.30;99.90;;;;;;5033013;28;20030;-77
2023/12/23 04:58:32;;;;;;;3.00;1.35;;;-0.20;99.90;;;;;;5032543;28;20430;-79
2023/12/23 05:00:58;;;;;;;1.77;1.52;;;-0.20;99.90;;;;;;5031684;28;20025;-77
2023/12/23 05:03:24;;;;;;;2.10;1.95;;;-0.20;99.90;;;;;;5032688;28;20386;-78
2023/12/23 05:05:49;;;;;;;3.75;1.42;;;-0.20;99.90;;;;;;5032669;28;20060;-77
2023/12/23 05:08:16;;;;;;;2.15;1.63;;;-0.20;99.90;;;;;;5032393;28;20467;-77
2023/12/23 05:10:44;;;;;;;4.05;1.52;;;-0.20;99.80;;;;;;5032195;28;20026;-77
2023/12/23 05:13:10;;;;;;;4.43;1.83;;;-0.20;99.90;;;;;;5031069;28;20032;-77
2023/12/23 05:15:35;;;;;;;3.20;1.70;;;-0.10;99.50;;;;;;5032618;28;20071;-77
2023/12/23 05:18:01;;;;;;;1.38;1.30;;;-0.10;98.00;;;;;;5031181;28;20030;-77
2023/12/23 05:20:27;;;;;;;2.80;1.50;;;-0.10;98.00;;;;;;5032816;28;20032;-78
2023/12/23 05:22:52;;;;;;;5.68;2.13;;;-0.20;96.20;;;;;;5031123;28;20026;-80
2023/12/23 05:25:18;;;;;;;1.70;1.60;;;-0.20;95.50;;;;;;5032435;28;20025;-76
2023/12/23 05:27:44;;;;;;;3.88;1.50;;;-0.20;93.70;;;;;;5032556;28;20052;-79
2023/12/23 05:30:10;;;;;;;3.42;1.77;;;-0.30;94.70;;;;;;5031087;28;20104;-76
2023/12/23 05:32:36;;;;;;;1.40;1.30;;;-0.30;90.60;;;;;;5032387;28;20113;-78
2023/12/23 05:35:02;;;;;;;1.35;1.25;;;-0.30;90.60;;;;;;5032503;28;20022;-79
2023/12/23 05:37:29;;;;;;;1.60;1.50;;;-0.40;91.60;;;;;;5032045;28;20064;-76
2023/12/23 05:39:54;;;;;;;1.60;1.50;;;-0.40;88.70;;;;;;5032310;28;20032;-76
2023/12/23 05:42:20;;;;;;;2.47;2.28;;;-0.50;88.50;;;;;;5031662;28;20025;-79
2023/12/23 05:44:45;;;;;;;5.68;1.90;;;-0.50;89.10;;;;;;5027339;28;20032;-77
2023/12/23 05:47:12;;;;;;;3.22;1.30;;;-0.50;89.20;;;;;;5031021;28;20057;-79
2023/12/23 05:49:38;;;;;;;2.50;2.00;;;-0.60;87.80;;;;;;5030918;28;20558;-79
2023/12/23 05:52:03;;;;;;;3.08;1.63;;;-0.60;88.70;;;;;;5031265;28;20112;-79
2023/12/23 05:54:29;;;;;;;5.30;1.70;;;-0.60;90.00;;;;;;5036018;28;20029;-76
2023/12/23 05:56:55;;;;;;;3.05;1.38;;;-0.70;91.10;;;;;;5034725;28;20493;-76
2023/12/23 05:59:20;;;;;;;3.28;1.50;;;-0.70;91.10;;;;;;5034191;28;20042;-76
2023/12/23 06:01:47;;;;;;;5.35;1.85;;;-0.80;90.30;;;;;;5034283;28;20406;-78
2023/12/23 06:04:13;;;;;;;1.83;1.58;;;-0.80;90.20;;;;;;5035045;28;20028;-78
2023/12/23 06:06:38;;;;;;;4.78;1.55;;;-0.80;88.90;;;;;;5035476;28;20026;-78
2023/12/23 06:09:04;;;;;;;13.95;5.45;;;-0.80;88.10;;;;;;5035632;28;20026;-77
2023/12/23 06:11:30;;;;;;;13.77;6.25;;;-0.90;87.60;;;;;;5035530;28;20502;-79
2023/12/23 06:13:55;;;;;;;56.92;19.67;;;-0.90;86.80;;;;;;5034490;28;20502;-77
2023/12/23 06:16:21;;;;;;;106.18;38.60;;;-0.90;85.60;;;;;;5035566;28;20115;-80
2023/12/23 06:18:47;;;;;;;72.10;27.52;;;-0.80;85.80;;;;;;5025367;28;20032;-79
2023/12/23 06:21:13;;;;;;;96.43;37.28;;;-0.90;86.30;;;;;;5034258;28;20021;-77
2023/12/23 06:23:38;;;;;;;28.88;14.27;;;-0.90;86.90;;;;;;5035289;28;20033;-77
2023/12/23 06:26:04;;;;;;;44.28;19.40;;;-0.90;87.00;;;;;;5033863;28;20021;-79
2023/12/23 06:28:30;;;;;;;32.58;15.88;;;-0.90;85.50;;;;;;5035512;28;20505;-79
2023/12/23 06:30:55;;;;;;;8.13;6.03;;;-0.90;86.10;;;;;;5035002;28;20053;-76
2023/12/23 06:33:21;;;;;;;19.92;12.07;;;-0.90;86.10;;;;;;5033639;28;20053;-76
2023/12/23 06:35:46;;;;;;;18.80;14.10;;;-0.90;85.50;;;;;;5032575;28;20056;-77
2023/12/23 06:38:15;;;;;;;13.10;10.75;;;-0.90;85.80;;;;;;5032643;28;20064;-77
2023/12/23 06:40:41;;;;;;;13.93;10.35;;;-0.90;85.10;;;;;;5034252;28;20021;-78
2023/12/23 06:43:07;;;;;;;14.57;6.15;;;-0.90;85.30;;;;;;5035164;28;20080;-77
2023/12/23 06:45:33;;;;;;;6.60;5.70;;;-0.90;85.00;;;;;;5034493;28;20040;-76
2023/12/23 06:47:59;;;;;;;12.00;10.75;;;-0.90;83.90;;;;;;5034874;28;20031;-76
2023/12/23 06:50:24;;;;;;;3.92;2.80;;;-0.90;84.40;;;;;;5033408;28;20493;-78
2023/12/23 06:52:50;;;;;;;5.78;2.85;;;-1.00;83.70;;;;;;5033457;28;20017;-78
2023/12/23 06:55:16;;;;;;;8.13;4.82;;;-1.00;84.10;;;;;;5033335;28;20075;-77
2023/12/23 06:57:42;;;;;;;2.58;1.70;;;-1.00;83.00;;;;;;5032920;28;20048;-78
2023/12/23 07:00:08;;;;;;;7.22;4.55;;;-1.00;84.00;;;;;;5032037;28;20029;-79
2023/12/23 07:02:34;;;;;;;2.47;2.28;;;-1.00;84.10;;;;;;5033653;28;20025;-79
2023/12/23 07:05:00;;;;;;;1.80;1.70;;;-1.00;84.70;;;;;;5034444;28;20071;-79
2023/12/23 07:07:25;;;;;;;2.40;2.20;;;-1.00;84.50;;;;;;5032102;28;20025;-78
2023/12/23 07:09:51;;;;;;;1.73;1.42;;;-1.00;85.50;;;;;;5033725;28;20033;-79
2023/12/23 07:12:16;;;;;;;2.75;1.40;;;-1.00;85.10;;;;;;5033508;28;20017;-78
2023/12/23 07:14:43;;;;;;;4.25;1.42;;;-1.00;84.40;;;;;;5033220;28;20018;-79
2023/12/23 07:17:08;;;;;;;2.72;2.53;;;-1.00;85.00;;;;;;5033361;28;20036;-78
2023/12/23 07:19:34;;;;;;;4.28;2.42;;;-1.00;84.40;;;;;;5033164;28;20021;-78
2023/12/23 07:22:00;;;;;;;2.30;1.60;;;-1.00;83.80;;;;;;5032206;28;20044;-78
2023/12/23 07:24:26;;;;;;;3.83;2.22;;;-1.00;83.50;;;;;;5034610;28;20099;-77
2023/12/23 07:26:52;;;;;;;4.15;2.15;;;-1.00;83.90;;;;;;5034096;28;20029;-76
2023/12/23 07:29:19;;;;;;;1.20;1.10;;;-1.00;84.50;;;;;;5032767;28;20030;-76
2023/12/23 07:31:45;;;;;;;3.75;1.90;;;-1.10;84.70;;;;;;5034089;28;20085;-78
2023/12/23 07:34:10;;;;;;;2.60;2.40;;;-1.10;85.00;;;;;;5030160;28;20075;-77
2023/12/23 07:36:36;;;;;;;3.95;1.92;;;-1.20;85.70;;;;;;5030920;28;20495;-77
2023/12/23 07:39:03;;;;;;;2.25;1.63;;;-1.20;86.50;;;;;;5028810;28;20049;-76
2023/12/23 07:41:29;;;;;;;2.70;2.15;;;-1.10;86.50;;;;;;5034174;28;20029;-78
2023/12/23 07:43:54;;;;;;;4.38;2.47;;;-1.20;87.30;;;;;;5032680;28;20029;-77
2023/12/23 07:46:20;;;;;;;4.13;2.75;;;-1.20;88.00;;;;;;5032555;28;20025;-77
2023/12/23 07:48:45;;;;;;;4.45;2.67;;;-1.10;87.80;;;;;;5037814;28;20021;-77
2023/12/23 07:51:11;;;;;;;2.28;1.90;;;-1.10;87.70;;;;;;5035061;28;20021;-76
2023/12/23 07:53:37;;;;;;;6.03;4.25;;;-1.10;88.00;;;;;;5032445;28;20025;-76
2023/12/23 07:56:03;;;;;;;10.80;4.93;;;-1.00;87.60;;;;;;5044878;28;20017;-76
2023/12/23 07:58:28;;;;;;;4.00;2.50;;;-1.00;86.50;;;;;;5034660;28;20026;-79
2023/12/23 08:00:54;;;;;;;4.88;4.15;;;-0.90;86.80;;;;;;5022370;28;20075;-79
2023/12/23 08:03:20;;;;;;;1.58;1.40;;;-0.90;86.90;;;;;;5041559;28;20112;-78
2023/12/23 08:05:45;;;;;;;1.95;1.85;;;-0.80;85.40;;;;;;5037566;28;20025;-79
2023/12/23 08:08:11;;;;;;;2.88;2.03;;;-0.80;84.50;;;;;;5042717;28;20083;-79
2023/12/23 08:10:38;;;;;;;3.15;1.70;;;-0.70;85.20;;;;;;5039036;28;20112;-79
2023/12/23 08:13:03;;;;;;;1.35;1.25;;;-0.70;83.90;;;;;;5037634;28;20361;-79
2023/12/23 08:15:29;;;;;;;2.55;1.50;;;-0.70;83.50;;;;;;5039042;28;20034;-80
2023/12/23 08:17:55;;;;;;;3.17;1.40;;;-0.80;85.00;;;;;;5039606;28;20036;-79
2023/12/23 08:20:20;;;;;;;3.47;1.83;;;-0.80;86.20;;;;;;5032034;28;20017;-79
2023/12/23 08:22:46;;;;;;;1.10;1.08;;;-0.70;87.40;;;;;;5043873;28;20017;-79
2023/12/23 08:25:12;;;;;;;2.90;1.33;;;-0.70;87.10;;;;;;5042104;28;20045;-79
2023/12/23 08:27:38;;;;;;;3.35;1.65;;;-0.60;84.80;;;;;;5034206;28;20091;-79
2023/12/23 08:30:06;;;;;;;8.43;1.58;;;-0.60;85.80;;;;;;5042083;28;20017;-79
2023/12/23 08:32:32;;;;;;;3.25;1.40;;;-0.60;85.60;;;;;;5048100;28;20076;-76
2023/12/23 08:34:58;;;;;;;3.03;1.77;;;-0.60;86.60;;;;;;5018481;28;20091;-76
2023/12/23 08:37:24;;;;;;;3.78;1.73;;;-0.60;86.30;;;;;;5049122;28;20074;-76
2023/12/23 08:39:50;;;;;;;3.90;1.95;;;-0.60;86.60;;;;;;5044490;28;20048;-76
2023/12/23 08:42:16;;;;;;;1.75;1.65;;;-0.60;87.00;;;;;;5048039;28;20017;-77
2023/12/23 08:44:42;;;;;;;1.50;1.40;;;-0.60;86.80;;;;;;5046414;28;20027;-76
2023/12/23 08:47:07;;;;;;;2.30;1.83;;;-0.60;85.90;;;;;;5050762;28;20025;-77
2023/12/23 08:49:33;;;;;;;1.98;1.35;;;-0.50;87.20;;;;;;5037362;28;20096;-76
2023/12/23 08:51:59;;;;;;;1.20;1.10;;;-0.50;87.20;;;;;;5046401;28;20033;-76
2023/12/23 08:54:24;;;;;;;2.20;1.50;;;-0.40;87.50;;;;;;5032253;28;20036;-77
2023/12/23 08:56:50;;;;;;;6.28;1.60;;;-0.30;87.10;;;;;;5043920;28;20414;-77
2023/12/23 08:59:16;;;;;;;1.10;1.10;;;-0.30;86.70;;;;;;5032842;28;20028;-78
2023/12/23 09:01:43;;;;;;;2.08;1.42;;;-0.30;84.20;;;;;;5027042;28;20029;-77
2023/12/23 09:04:10;;;;;;;1.63;1.30;;;-0.30;84.50;;;;;;5029255;28;20026;-77
2023/12/23 09:06:35;;;;;;;3.75;1.70;;;-0.30;84.80;;;;;;5028644;28;20029;-76
2023/12/23 09:09:01;;;;;;;2.47;1.33;;;-0.20;84.20;;;;;;5028679;28;20028;-77
2023/12/23 09:11:27;;;;;;;2.97;2.00;;;-0.10;84.50;;;;;;5029038;28;20107;-77
2023/12/23 09:13:53;;;;;;;1.58;1.35;;;0.00;85.60;;;;;;5030086;28;20076;-78
2023/12/23 09:16:18;;;;;;;1.73;1.63;;;0.10;85.90;;;;;;5027993;28;20045;-78
2023/12/23 09:18:44;;;;;;;2.92;1.30;;;0.10;82.40;;;;;;5029624;28;20030;-77
2023/12/23 09:21:10;;;;;;;3.47;1.65;;;0.10;82.70;;;;;;5029980;28;20435;-77
2023/12/23 09:23:35;;;;;;;3.20;1.33;;;0.00;81.80;;;;;;5031007;28;20028;-76
2023/12/23 09:26:01;;;;;;;3.90;1.70;;;0.00;82.70;;;;;;5032504;28;20117;-77
2023/12/23 09:28:27;;;;;;;3.30;1.20;;;0.10;81.90;;;;;;5032987;28;20446;-78
2023/12/23 09:30:52;;;;;;;4.68;1.45;;;0.20;82.70;;;;;;5034694;28;20104;-77
2023/12/23 09:33:18;;;;;;;3.88;1.80;;;0.20;83.50;;;;;;5032732;28;20539;-76
2023/12/23 09:35:43;;;;;;;2.88;1.35;;;0.20;83.00;;;;;;5032613;28;20104;-77
2023/12/23 09:38:12;;;;;;;1.50;1.25;;;0.10;83.70;;;;;;5032219;28;20022;-76
2023/12/23 09:40:38;;;;;;;2.85;1.55;;;0.00;83.80;;;;;;5033802;28;20025;-77
2023/12/23 09:43:05;;;;;;;2.50;1.38;;;-0.10;83.90;;;;;;5035744;28;20558;-76
2023/12/23 09:45:33;;;;;;;2.05;1.60;;;-0.10;84.90;;;;;;5036181;28;20096;-76
2023/12/23 09:47:59;;;;;;;1.77;1.67;;;-0.20;85.80;;;;;;5034892;28;20032;-76
2023/12/23 09:50:25;;;;;;;2.90;1.67;;;-0.10;86.00;;;;;;5035200;28;20056;-77
2023/12/23 09:52:52;;;;;;;6.50;1.60;;;-0.10;86.70;;;;;;5034910;28;20038;-78
2023/12/23 09:55:18;;;;;;;3.55;2.08;;;-0.10;87.20;;;;;;5034930;28;20025;-76
2023/12/23 09:57:44;;;;;;;3.38;1.90;;;-0.10;89.60;;;;;;5036020;28;20029;-76
2023/12/23 10:00:11;;;;;;;6.88;2.22;;;-0.10;89.80;;;;;;5036106;28;20024;-77
2023/12/23 10:02:37;;;;;;;3.83;1.90;;;-0.10;90.50;;;;;;5033938;28;20022;-77
2023/12/23 10:05:03;;;;;;;3.35;1.85;;;0.00;91.20;;;;;;5036167;28;20056;-76
2023/12/23 10:07:28;;;;;;;4.43;2.17;;;0.00;91.70;;;;;;5035522;28;20029;-77
2023/12/23 10:09:54;;;;;;;7.68;2.03;;;0.00;91.60;;;;;;5034492;28;20018;-77
2023/12/23 10:12:21;;;;;;;3.80;2.40;;;0.00;91.60;;;;;;5034166;28;20029;-76
2023/12/23 10:14:48;;;;;;;5.22;2.45;;;0.00;91.20;;;;;;5034759;28;20045;-77
2023/12/23 10:17:14;;;;;;;5.43;3.45;;;0.00;91.60;;;;;;5034267;28;20163;-77
2023/12/23 10:19:39;;;;;;;5.57;2.35;;;0.00;91.10;;;;;;5034561;28;20454;-77
2023/12/23 10:22:06;;;;;;;6.40;2.97;;;0.10;91.50;;;;;;5035521;28;20097;-78
2023/12/23 10:24:32;;;;;;;10.23;3.25;;;0.10;92.20;;;;;;5034553;28;20033;-77
2023/12/23 10:26:59;;;;;;;6.05;3.30;;;0.10;92.30;;;;;;5034189;28;20471;-76
2023/12/23 10:29:26;;;;;;;3.55;2.80;;;0.20;91.90;;;;;;5035704;28;20052;-76
2023/12/23 10:31:55;;;;;;;6.45;2.78;;;0.20;92.90;;;;;;5034985;28;20038;-77
2023/12/23 10:34:24;;;;;;;5.57;2.90;;;0.20;92.80;;;;;;5034213;28;20505;-77
2023/12/23 10:36:53;;;;;;;5.50;2.50;;;0.20;93.10;;;;;;5035303;28;20052;-76
2023/12/23 10:39:27;;;;;;;6.00;2.85;;;0.10;93.80;;;;;;5033940;28;20029;-77
2023/12/23 10:42:03;;;;;;;3.60;2.50;;;0.00;97.80;;;;;;5033625;28;20087;-77
2023/12/23 10:44:30;;;;;;;5.15;2.53;;;0.00;99.10;;;;;;5035267;28;20117;-77
2023/12/23 10:46:57;;;;;;;4.80;3.40;;;0.00;99.90;;;;;;5034026;28;20360;-77
2023/12/23 10:49:25;;;;;;;5.80;2.70;;;0.00;99.90;;;;;;5034986;28;20029;-77
2023/12/23 10:51:54;;;;;;;12.57;4.00;;;0.00;99.90;;;;;;5035053;28;20104;-77
2023/12/23 10:54:20;;;;;;;5.90;3.40;;;0.00;99.90;;;;;;5032648;28;20402;-77
2023/12/23 10:56:48;;;;;;;8.27;4.05;;;0.00;99.30;;;;;;5034965;28;20400;-78
2023/12/23 10:59:14;;;;;;;9.60;6.00;;;0.00;99.90;;;;;;5034881;28;20528;-77
2023/12/23 11:01:41;;;;;;;6.07;4.72;;;0.00;99.40;;;;;;5033540;28;20025;-77
2023/12/23 11:04:07;;;;;;;10.43;4.32;;;0.00;98.30;;;;;;5033763;28;20499;-76
2023/12/23 11:06:37;;;;;;;4.35;3.28;;;0.00;97.00;;;;;;5034935;28;20101;-77
2023/12/23 11:09:05;;;;;;;10.82;5.05;;;0.00;96.20;;;;;;5034734;28;20097;-77
2023/12/23 11:11:32;;;;;;;19.15;6.80;;;0.00;95.10;;;;;;5034898;28;20045;-76
2023/12/23 11:13:58;;;;;;;8.55;4.95;;;0.00;94.70;;;;;;5033052;28;20104;-77
2023/12/23 11:16:24;;;;;;;7.60;5.03;;;0.10;93.70;;;;;;5034829;28;20030;-77
2023/12/23 11:18:54;;;;;;;11.88;5.10;;;0.10;93.30;;;;;;5034684;28;20024;-77
2023/12/23 11:21:19;;;;;;;14.15;5.45;;;0.10;94.00;;;;;;5034988;28;20025;-77
2023/12/23 11:23:46;;;;;;;19.20;6.80;;;0.10;92.60;;;;;;5033184;28;20040;-77
2023/12/23 11:26:42;;;;;;;12.55;7.68;;;0.10;91.00;;;;;;5034770;28;20465;-76
2023/12/23 11:29:11;;;;;;;16.50;7.55;;;0.20;90.20;;;;;;5033419;28;20364;-77
2023/12/23 11:31:37;;;;;;;31.08;10.93;;;0.20;89.30;;;;;;5032596;28;20120;-76
2023/12/23 11:34:13;;;;;;;13.98;4.78;;;0.20;89.00;;;;;;5034592;28;20088;-77
2023/12/23 11:36:41;;;;;;;22.92;9.60;;;0.20;88.20;;;;;;5033108;28;20056;-76
2023/12/23 11:39:10;;;;;;;19.65;9.07;;;0.30;88.10;;;;;;5034449;28;20048;-77
2023/12/23 11:41:38;;;;;;;20.13;9.40;;;0.30;88.30;;;;;;5034087;28;20032;-77
2023/12/23 11:44:04;;;;;;;11.63;5.97;;;0.30;88.00;;;;;;5033097;28;20049;-76
2023/12/23 11:46:31;;;;;;;30.02;9.52;;;0.30;86.90;;;;;;5034031;28;20017;-77
2023/12/23 11:48:56;;;;;;;28.80;11.43;;;0.30;86.80;;;;;;5034240;28;20038;-77
2023/12/23 11:51:23;;;;;;;48.15;23.55;;;0.30;86.70;;;;;;5030913;28;20014;-76
2023/12/23 11:53:49;;;;;;;38.55;12.88;;;0.30;88.30;;;;;;5033600;28;20060;-77
2023/12/23 11:56:15;;;;;;;43.30;14.77;;;0.30;88.80;;;;;;5012785;28;20503;-78
2023/12/23 11:58:42;;;;;;;37.00;13.93;;;0.20;88.40;;;;;;5030565;28;20045;-76
2023/12/23 12:01:07;;;;;;;30.40;12.77;;;0.20;87.70;;;;;;5033023;28;20856;-75
2023/12/23 12:03:33;;;;;;;25.80;12.73;;;0.20;87.30;;;;;;5033669;28;20025;-75
2023/12/23 12:05:59;;;;;;;33.50;13.73;;;0.20;87.10;;;;;;5030961;28;20029;-75
2023/12/23 12:08:26;;;;;;;38.60;15.27;;;0.20;86.80;;;;;;5031734;28;20638;-76
2023/12/23 12:10:55;;;;;;;51.58;24.65;;;0.20;86.80;;;;;;5012084;28;20126;-76
2023/12/23 12:13:20;;;;;;;85.97;34.00;;;0.20;86.40;;;;;;5032111;28;20422;-78
2023/12/23 12:15:46;;;;;;;100.05;37.08;;;0.20;86.00;;;;;;5031594;28;20021;-76
2023/12/23 12:18:12;;;;;;;120.70;46.03;;;0.20;87.40;;;;;;5032094;28;20033;-76
2023/12/23 12:20:37;;;;;;;75.68;32.20;;;0.20;88.10;;;;;;5027911;28;20041;-76
2023/12/23 12:23:03;;;;;;;86.38;33.03;;;0.20;89.20;;;;;;5032585;28;20024;-78
2023/12/23 12:25:29;;;;;;;211.38;80.03;;;0.20;89.20;;;;;;5039417;28;20559;-78
2023/12/23 12:27:55;;;;;;;119.50;44.85;;;0.20;89.50;;;;;;5036114;28;20040;-79
2023/12/23 12:30:21;;;;;;;90.57;32.15;;;0.10;90.20;;;;;;5032408;28;20049;-79
2023/12/23 12:32:47;;;;;;;155.45;50.22;;;0.10;91.40;;;;;;5027392;28;20128;-81
2023/12/23 12:35:14;;;;;;;194.80;68.65;;;0.10;93.80;;;;;;5025007;28;20033;-81
2023/12/23 12:37:40;;;;;;;167.68;59.83;;;0.10;96.20;;;;;;5031385;28;20044;-81
2023/12/23 12:40:10;;;;;;;110.63;35.20;;;0.10;99.90;;;;;;5038853;28;20033;-80
2023/12/23 12:42:38;;;;;;;82.00;29.77;;;0.00;99.90;;;;;;5037900;28;20095;-79